createdAt,value
2023-05-19T00:01:52.522Z,10.90
2023-05-19T00:04:19.455Z,10.87
2023-05-19T00:06:50.861Z,10.86
2023-05-19T00:09:17.876Z,10.87
2023-05-19T00:11:44.806Z,10.84
2023-05-19T00:14:11.919Z,10.83
2023-05-19T00:16:38.999Z,10.75
2023-05-19T00:19:10.167Z,10.76
2023-05-19T00:21:40.578Z,10.74
2023-05-19T00:24:07.543Z,10.72
2023-05-19T00:26:34.240Z,10.76
2023-05-19T00:29:05.433Z,10.81
2023-05-19T00:31:34.006Z,10.84
2023-05-19T00:34:01.035Z,10.86
2023-05-19T00:36:27.714Z,10.88
2023-05-19T00:38:55.982Z,10.83
2023-05-19T00:41:22.772Z,10.73
2023-05-19T00:43:50.826Z,10.68
2023-05-19T00:46:18.810Z,10.67
2023-05-19T00:48:45.661Z,10.64
2023-05-19T00:51:16.832Z,10.64
2023-05-19T00:53:48.607Z,10.59
2023-05-19T00:56:19.068Z,10.60
2023-05-19T00:58:46.741Z,10.63
2023-05-19T01:01:14.606Z,10.67
2023-05-19T01:03:43.016Z,10.67
2023-05-19T01:06:10.077Z,10.64
2023-05-19T01:08:38.243Z,10.66
2023-05-19T01:11:06.595Z,10.64
2023-05-19T01:13:34.620Z,10.51
2023-05-19T01:16:07.803Z,10.46
2023-05-19T01:18:46.376Z,10.44
2023-05-19T01:21:36.543Z,10.42
2023-05-19T01:24:48.069Z,10.44
2023-05-19T01:27:35.624Z,10.46
2023-05-19T01:30:25.438Z,10.47
2023-05-19T01:32:59.731Z,10.40
2023-05-19T01:35:28.417Z,10.34
2023-05-19T01:37:58.322Z,10.41
2023-05-19T01:40:26.661Z,10.38
2023-05-19T01:42:57.314Z,10.32
2023-05-19T01:45:27.829Z,10.27
2023-05-19T01:47:57.710Z,10.29
2023-05-19T01:50:24.707Z,10.28
2023-05-19T01:52:52.396Z,10.33
2023-05-19T01:55:19.329Z,10.42
2023-05-19T01:58:11.460Z,10.37
2023-05-19T02:00:54.085Z,10.42
2023-05-19T02:03:38.378Z,10.37
2023-05-19T02:06:22.762Z,10.26
2023-05-19T02:09:18.608Z,10.25
2023-05-19T02:11:56.661Z,10.26
2023-05-19T02:15:11.691Z,10.33
2023-05-19T02:17:42.193Z,10.33
2023-05-19T02:20:11.655Z,10.38
2023-05-19T02:22:38.331Z,10.39
2023-05-19T02:25:06.909Z,10.40
2023-05-19T02:27:34.864Z,10.43
2023-05-19T02:30:03.604Z,10.47
2023-05-19T02:32:31.563Z,10.44
2023-05-19T02:34:58.384Z,10.41
2023-05-19T02:37:25.261Z,10.36
2023-05-19T02:39:51.862Z,10.36
2023-05-19T02:42:18.711Z,10.43
2023-05-19T02:44:45.443Z,10.41
2023-05-19T02:47:15.591Z,10.45
2023-05-19T02:49:43.056Z,10.44
2023-05-19T02:52:09.686Z,10.36
2023-05-19T02:54:36.415Z,10.29
2023-05-19T02:57:03.145Z,10.36
2023-05-19T02:59:29.836Z,10.30
2023-05-19T03:01:59.932Z,10.32
2023-05-19T03:04:26.735Z,10.27
2023-05-19T03:06:54.207Z,10.29
2023-05-19T03:09:21.162Z,10.30
2023-05-19T03:11:47.786Z,10.28
2023-05-19T03:14:14.404Z,10.27
2023-05-19T03:16:42.250Z,10.22
2023-05-19T03:19:09.691Z,10.22
2023-05-19T03:21:36.678Z,10.32
2023-05-19T03:24:03.571Z,10.34
2023-05-19T03:26:30.517Z,10.29
2023-05-19T03:28:57.226Z,10.21
2023-05-19T03:31:23.951Z,10.18
2023-05-19T03:33:50.710Z,10.21
2023-05-19T03:36:18.165Z,10.28
2023-05-19T03:38:44.826Z,10.29
2023-05-19T03:41:11.499Z,10.32
2023-05-19T03:43:38.240Z,10.34
2023-05-19T03:46:07.303Z,10.34
2023-05-19T03:48:52.448Z,10.36
2023-05-19T03:51:29.955Z,10.40
2023-05-19T03:54:04.453Z,10.37
2023-05-19T03:56:31.217Z,10.41
2023-05-19T03:58:57.836Z,10.42
2023-05-19T04:01:24.460Z,10.48
2023-05-19T04:03:51.113Z,10.46
2023-05-19T04:06:19.117Z,10.52
2023-05-19T04:08:45.857Z,10.56
2023-05-19T04:11:12.906Z,10.58
2023-05-19T04:13:39.609Z,10.61
2023-05-19T04:16:06.921Z,10.58
2023-05-19T04:18:33.699Z,10.70
2023-05-19T04:21:00.377Z,10.65
2023-05-19T04:23:27.030Z,10.64
2023-05-19T04:25:55.139Z,10.79
2023-05-19T04:28:23.862Z,10.82
2023-05-19T04:30:50.551Z,10.77
2023-05-19T04:33:17.860Z,10.80
2023-05-19T04:35:44.583Z,10.77
2023-05-19T04:38:12.519Z,10.85
2023-05-19T04:40:42.236Z,10.90
2023-05-19T04:43:09.476Z,10.94
2023-05-19T04:45:37.666Z,10.90
2023-05-19T04:48:05.508Z,10.90
2023-05-19T04:50:32.964Z,10.94
2023-05-19T04:53:00.493Z,10.96
2023-05-19T04:55:27.609Z,11.01
2023-05-19T04:57:54.293Z,11.00
2023-05-19T05:00:21.987Z,11.03
2023-05-19T05:02:59.036Z,11.08
2023-05-19T05:05:28.880Z,11.07
2023-05-19T05:07:56.241Z,11.08
2023-05-19T05:10:25.076Z,11.02
2023-05-19T05:12:53.430Z,11.11
2023-05-19T05:15:21.066Z,11.12
2023-05-19T05:17:50.161Z,11.17
2023-05-19T05:20:17.511Z,11.20
2023-05-19T05:22:44.635Z,11.28
2023-05-19T05:25:13.300Z,11.21
2023-05-19T05:27:40.804Z,11.17
2023-05-19T05:30:08.987Z,11.20
2023-05-19T05:32:37.009Z,11.18
2023-05-19T05:35:09.619Z,11.23
2023-05-19T05:37:36.329Z,11.18
2023-05-19T05:40:04.556Z,11.28
2023-05-19T05:42:31.280Z,11.26
2023-05-19T05:44:57.979Z,11.26
2023-05-19T05:47:25.131Z,11.30
2023-05-19T05:49:53.669Z,11.37
2023-05-19T05:52:22.506Z,11.33
2023-05-19T05:54:49.657Z,11.42
2023-05-19T05:57:18.971Z,11.50
2023-05-19T05:59:47.125Z,11.70
2023-05-19T06:02:14.698Z,11.79
2023-05-19T06:04:41.838Z,11.79
2023-05-19T06:07:08.872Z,11.75
2023-05-19T06:09:37.914Z,11.82
2023-05-19T06:12:06.769Z,11.84
2023-05-19T06:14:38.552Z,11.89
2023-05-19T06:17:14.223Z,11.87
2023-05-19T06:19:42.223Z,11.87
2023-05-19T06:22:09.623Z,11.82
2023-05-19T06:24:38.769Z,12.04
2023-05-19T06:27:08.559Z,12.10
2023-05-19T06:29:35.219Z,12.17
2023-05-19T06:32:04.497Z,12.13
2023-05-19T06:34:32.252Z,12.11
2023-05-19T06:36:59.552Z,12.21
2023-05-19T06:39:26.279Z,12.22
2023-05-19T06:41:53.328Z,12.50
2023-05-19T06:44:38.428Z,12.64
2023-05-19T06:47:09.417Z,12.75
2023-05-19T06:49:36.063Z,12.96
2023-05-19T06:52:02.779Z,12.96
2023-05-19T06:54:29.619Z,13.21
2023-05-19T06:56:57.278Z,13.39
2023-05-19T06:59:24.467Z,13.35
2023-05-19T07:01:51.387Z,13.55
2023-05-19T07:04:18.091Z,13.57
2023-05-19T07:06:44.876Z,13.63
2023-05-19T07:09:13.921Z,13.85
2023-05-19T07:11:41.265Z,14.10
2023-05-19T07:14:08.543Z,14.29
2023-05-19T07:16:35.624Z,14.49
2023-05-19T07:19:02.439Z,14.63
2023-05-19T07:21:29.116Z,14.58
2023-05-19T07:23:55.938Z,14.59
2023-05-19T07:26:22.741Z,14.65
2023-05-19T07:28:49.443Z,14.88
2023-05-19T07:31:16.843Z,15.10
2023-05-19T07:33:43.523Z,15.25
2023-05-19T07:36:10.202Z,15.30
2023-05-19T07:38:36.946Z,15.49
2023-05-19T07:41:03.854Z,15.80
2023-05-19T07:43:30.481Z,15.83
2023-05-19T07:45:57.290Z,16.55
2023-05-19T07:48:25.695Z,16.91
2023-05-19T07:50:53.060Z,16.96
2023-05-19T07:53:20.240Z,16.45
2023-05-19T07:55:46.952Z,16.16
2023-05-19T07:58:13.731Z,15.69
2023-05-19T08:00:43.011Z,15.99
2023-05-19T08:03:10.324Z,16.05
2023-05-19T08:05:37.182Z,16.17
2023-05-19T08:08:04.153Z,16.29
2023-05-19T08:10:31.225Z,16.77
2023-05-19T08:12:58.161Z,17.21
2023-05-19T08:15:25.422Z,17.75
2023-05-19T08:17:52.158Z,17.93
2023-05-19T08:20:18.905Z,18.32
2023-05-19T08:22:45.495Z,17.86
2023-05-19T08:25:12.132Z,18.35
2023-05-19T08:27:38.735Z,18.16
2023-05-19T08:30:06.089Z,17.24
2023-05-19T08:32:32.794Z,16.38
2023-05-19T08:34:59.410Z,16.74
2023-05-19T08:37:26.030Z,16.79
2023-05-19T08:39:52.648Z,16.56
2023-05-19T08:42:19.306Z,16.46
2023-05-19T08:44:45.912Z,16.49
2023-05-19T08:47:14.003Z,16.48
2023-05-19T08:49:47.492Z,16.33
2023-05-19T08:52:32.409Z,16.30
2023-05-19T08:55:05.901Z,15.96
2023-05-19T08:57:34.159Z,16.12
2023-05-19T09:00:01.215Z,16.56
2023-05-19T09:02:28.239Z,16.53
2023-05-19T09:04:57.605Z,16.70
2023-05-19T09:07:25.684Z,16.91
2023-05-19T09:09:52.339Z,16.96
2023-05-19T09:12:18.945Z,17.31
2023-05-19T09:14:46.504Z,17.78
2023-05-19T09:17:13.472Z,18.17
2023-05-19T09:19:44.821Z,18.47
2023-05-19T09:22:11.702Z,18.26
2023-05-19T09:24:40.366Z,18.81
2023-05-19T09:27:07.079Z,19.23
2023-05-19T09:29:33.773Z,19.93
2023-05-19T09:32:01.603Z,19.89
2023-05-19T09:34:28.374Z,20.31
2023-05-19T09:36:54.999Z,20.21
2023-05-19T09:39:25.822Z,19.21
2023-05-19T09:41:58.465Z,19.50
2023-05-19T09:44:29.406Z,19.16
2023-05-19T09:46:56.770Z,19.16
2023-05-19T09:49:26.009Z,18.71
2023-05-19T09:51:56.646Z,18.60
2023-05-19T09:54:24.525Z,18.64
2023-05-19T09:57:00.434Z,19.25
2023-05-19T09:59:32.321Z,21.45
2023-05-19T10:02:00.829Z,23.02
2023-05-19T10:04:29.643Z,22.12
2023-05-19T10:07:01.106Z,20.74
2023-05-19T10:09:30.550Z,21.64
2023-05-19T10:11:58.515Z,21.84
2023-05-19T10:14:26.870Z,23.44
2023-05-19T10:16:55.574Z,24.93
2023-05-19T10:19:23.987Z,25.46
2023-05-19T10:21:53.519Z,24.11
2023-05-19T10:24:21.362Z,22.32
2023-05-19T10:27:01.415Z,23.33
2023-05-19T10:29:35.316Z,23.07
2023-05-19T10:32:09.070Z,24.04
2023-05-19T10:35:12.557Z,22.69
2023-05-19T10:38:12.754Z,22.52
2023-05-19T10:40:53.548Z,22.84
2023-05-19T10:43:31.024Z,22.96
2023-05-19T10:45:57.990Z,21.80
2023-05-19T10:48:24.750Z,22.21
2023-05-19T10:50:56.395Z,22.49
2023-05-19T10:53:31.161Z,22.39
2023-05-19T10:56:02.481Z,22.04
2023-05-19T10:58:55.397Z,23.33
2023-05-19T11:01:24.729Z,22.71
2023-05-19T11:03:57.242Z,23.97
2023-05-19T11:06:35.702Z,26.00
2023-05-19T11:09:14.551Z,26.13
2023-05-19T11:11:51.030Z,27.79
2023-05-19T11:14:20.242Z,29.10
2023-05-19T11:16:52.891Z,30.49
2023-05-19T11:19:28.854Z,28.60
2023-05-19T11:21:57.445Z,28.50
2023-05-19T11:24:34.983Z,26.98
2023-05-19T11:27:31.624Z,25.84
2023-05-19T11:30:14.580Z,26.99
2023-05-19T11:32:44.455Z,28.99
2023-05-19T11:35:11.632Z,26.88
2023-05-19T11:37:40.441Z,25.52
2023-05-19T11:40:08.042Z,25.21
2023-05-19T11:42:36.087Z,24.86
2023-05-19T11:45:04.258Z,24.44
2023-05-19T11:47:42.108Z,23.00
2023-05-19T11:50:20.113Z,22.28
2023-05-19T11:52:49.967Z,23.06
2023-05-19T11:55:23.274Z,24.85
2023-05-19T11:58:03.998Z,25.77
2023-05-19T12:00:42.113Z,25.62
2023-05-19T12:03:09.421Z,25.30
2023-05-19T12:05:41.987Z,26.80
2023-05-19T12:08:10.331Z,27.89
2023-05-19T12:10:39.209Z,28.52
2023-05-19T12:13:09.100Z,27.66
2023-05-19T12:15:36.514Z,27.26
2023-05-19T12:18:04.381Z,25.00
2023-05-19T12:20:35.735Z,24.60
2023-05-19T12:23:03.661Z,23.33
2023-05-19T12:25:31.378Z,22.94
2023-05-19T12:28:00.201Z,22.50
2023-05-19T12:30:31.967Z,22.15
2023-05-19T12:32:59.055Z,22.84
2023-05-19T12:35:30.562Z,23.61
2023-05-19T12:37:57.837Z,23.56
2023-05-19T12:40:26.182Z,23.81
2023-05-19T12:42:59.103Z,25.06
2023-05-19T12:45:28.700Z,23.85
2023-05-19T12:47:56.268Z,23.56
2023-05-19T12:50:30.957Z,22.78
2023-05-19T12:52:59.604Z,22.20
2023-05-19T12:55:26.520Z,21.21
2023-05-19T12:57:56.724Z,21.19
2023-05-19T13:00:32.561Z,20.96
2023-05-19T13:03:05.026Z,20.26
2023-05-19T13:05:39.632Z,21.31
2023-05-19T13:08:15.436Z,23.56
2023-05-19T13:10:43.894Z,25.48
2023-05-19T13:13:11.351Z,25.06
2023-05-19T13:15:41.593Z,25.17
2023-05-19T13:18:09.892Z,24.35
2023-05-19T13:20:38.410Z,23.45
2023-05-19T13:23:05.859Z,22.38
2023-05-19T13:25:35.767Z,21.75
2023-05-19T13:28:06.677Z,22.06
2023-05-19T13:30:34.936Z,22.74
2023-05-19T13:33:02.249Z,22.45
2023-05-19T13:35:29.069Z,22.67
2023-05-19T13:37:55.785Z,22.49
2023-05-19T13:40:23.940Z,22.55
2023-05-19T13:42:50.751Z,22.49
2023-05-19T13:45:18.230Z,22.66
2023-05-19T13:47:44.999Z,22.56
2023-05-19T13:50:12.298Z,22.78
2023-05-19T13:52:39.047Z,22.92
2023-05-19T13:55:07.449Z,23.04
2023-05-19T13:57:34.208Z,22.55
2023-05-19T14:00:03.412Z,21.91
2023-05-19T14:02:40.562Z,22.04
2023-05-19T14:05:08.038Z,22.23
2023-05-19T14:07:35.199Z,22.44
2023-05-19T14:10:08.292Z,22.32
2023-05-19T14:12:49.376Z,22.69
2023-05-19T14:15:22.744Z,22.75
2023-05-19T14:17:49.534Z,22.13
2023-05-19T14:20:16.204Z,21.88
2023-05-19T14:22:42.900Z,21.74
2023-05-19T14:25:09.653Z,21.32
2023-05-19T14:27:36.398Z,21.16
2023-05-19T14:30:03.381Z,20.61
2023-05-19T14:32:30.698Z,20.33
2023-05-19T14:34:57.391Z,20.12
2023-05-19T14:37:26.504Z,19.93
2023-05-19T14:39:53.578Z,19.43
2023-05-19T14:42:20.208Z,19.50
2023-05-19T14:44:46.828Z,19.38
2023-05-19T14:47:13.572Z,19.17
2023-05-19T14:49:40.482Z,19.15
2023-05-19T14:52:07.412Z,19.13
2023-05-19T14:54:34.106Z,19.11
2023-05-19T14:57:01.548Z,19.15
2023-05-19T14:59:29.756Z,19.11
2023-05-19T15:01:56.717Z,19.02
2023-05-19T15:04:23.593Z,19.12
2023-05-19T15:07:01.983Z,18.79
2023-05-19T15:09:35.748Z,19.00
2023-05-19T15:12:02.397Z,19.13
2023-05-19T15:14:30.819Z,18.97
2023-05-19T15:17:01.290Z,18.88
2023-05-19T15:19:28.169Z,18.75
2023-05-19T15:21:55.545Z,18.60
2023-05-19T15:24:22.596Z,18.50
2023-05-19T15:26:49.235Z,18.22
2023-05-19T15:29:15.909Z,18.15
2023-05-19T15:31:42.546Z,18.04
2023-05-19T15:34:09.300Z,17.99
2023-05-19T15:36:35.910Z,17.97
2023-05-19T15:39:03.698Z,18.08
2023-05-19T15:41:30.534Z,18.17
2023-05-19T15:43:57.229Z,18.03
2023-05-19T15:46:24.140Z,17.90
2023-05-19T15:48:50.819Z,17.90
2023-05-19T15:51:17.650Z,17.70
2023-05-19T15:53:44.276Z,17.65
2023-05-19T15:56:10.999Z,17.58
2023-05-19T15:58:37.665Z,17.53
2023-05-19T16:01:04.884Z,17.38
2023-05-19T16:03:31.664Z,17.35
2023-05-19T16:05:58.469Z,17.15
2023-05-19T16:08:25.430Z,17.11
2023-05-19T16:10:52.512Z,16.99
2023-05-19T16:13:19.245Z,16.83
2023-05-19T16:15:45.864Z,16.70
2023-05-19T16:18:12.988Z,16.62
2023-05-19T16:20:39.722Z,16.69
2023-05-19T16:23:06.367Z,16.67
2023-05-19T16:25:33.191Z,16.63
2023-05-19T16:27:59.777Z,16.65
2023-05-19T16:30:27.945Z,16.72
2023-05-19T16:32:54.752Z,16.69
2023-05-19T16:35:21.987Z,16.72
2023-05-19T16:37:49.091Z,16.76
2023-05-19T16:40:15.789Z,16.72
2023-05-19T16:42:42.466Z,16.72
2023-05-19T16:45:09.610Z,16.71
2023-05-19T16:47:36.355Z,16.65
2023-05-19T16:50:03.549Z,16.56
2023-05-19T16:52:30.242Z,16.49
2023-05-19T16:54:56.839Z,16.47
2023-05-19T16:57:23.447Z,16.41
2023-05-19T16:59:50.240Z,16.34
2023-05-19T17:02:16.873Z,16.48
2023-05-19T17:04:43.581Z,16.40
2023-05-19T17:07:15.676Z,16.29
2023-05-19T17:09:42.997Z,16.31
2023-05-19T17:12:09.908Z,16.25
2023-05-19T17:14:36.680Z,16.06
2023-05-19T17:17:03.487Z,16.11
2023-05-19T17:19:30.172Z,16.16
2023-05-19T17:21:56.788Z,16.11
2023-05-19T17:24:23.409Z,16.07
2023-05-19T17:26:50.001Z,16.05
2023-05-19T17:29:16.585Z,15.92
2023-05-19T17:31:43.844Z,15.84
2023-05-19T17:34:10.697Z,15.83
2023-05-19T17:36:37.335Z,15.67
2023-05-19T17:39:07.412Z,15.53
2023-05-19T17:41:34.109Z,15.43
2023-05-19T17:44:00.922Z,15.34
2023-05-19T17:46:30.092Z,15.25
2023-05-19T17:48:56.771Z,15.21
2023-05-19T17:51:23.625Z,15.15
2023-05-19T17:53:50.576Z,15.04
2023-05-19T17:56:19.502Z,14.96
2023-05-19T17:58:46.963Z,14.81
2023-05-19T18:01:14.550Z,14.74
2023-05-19T18:03:43.421Z,14.64
2023-05-19T18:06:11.894Z,14.54
2023-05-19T18:08:39.523Z,14.48
2023-05-19T18:11:06.680Z,14.41
2023-05-19T18:13:33.359Z,14.37
2023-05-19T18:16:00.158Z,14.32
2023-05-19T18:18:26.853Z,14.27
2023-05-19T18:20:54.809Z,14.28
2023-05-19T18:23:22.458Z,14.30
2023-05-19T18:25:50.776Z,14.29
2023-05-19T18:28:17.404Z,14.27
2023-05-19T18:30:44.139Z,14.29
2023-05-19T18:33:10.921Z,14.25
2023-05-19T18:35:38.122Z,14.30
2023-05-19T18:38:04.830Z,14.35
2023-05-19T18:40:31.745Z,14.32
2023-05-19T18:42:58.496Z,14.28
2023-05-19T18:45:25.194Z,14.30
2023-05-19T18:47:51.819Z,14.30
2023-05-19T18:50:20.910Z,14.37
2023-05-19T18:52:47.540Z,14.35
2023-05-19T18:55:14.329Z,14.30
2023-05-19T18:57:41.820Z,14.32
2023-05-19T19:00:09.058Z,14.37
2023-05-19T19:02:35.799Z,14.41
2023-05-19T19:05:04.061Z,14.46
2023-05-19T19:07:31.443Z,14.45
2023-05-19T19:09:58.042Z,14.45
2023-05-19T19:12:24.721Z,14.40
2023-05-19T19:14:51.326Z,14.35
2023-05-19T19:17:18.164Z,14.33
2023-05-19T19:19:45.100Z,14.27
2023-05-19T19:22:11.778Z,14.28
2023-05-19T19:24:38.358Z,14.26
2023-05-19T19:27:05.375Z,14.21
2023-05-19T19:29:32.010Z,14.20
2023-05-19T19:31:58.657Z,14.22
2023-05-19T19:34:25.582Z,14.22
2023-05-19T19:36:52.316Z,14.22
2023-05-19T19:39:19.002Z,14.26
2023-05-19T19:41:45.640Z,14.25
2023-05-19T19:44:13.481Z,14.26
2023-05-19T19:46:40.152Z,14.19
2023-05-19T19:49:06.762Z,14.19
2023-05-19T19:51:33.424Z,14.12
2023-05-19T19:54:00.121Z,14.05
2023-05-19T19:56:27.673Z,14.03
2023-05-19T19:58:56.906Z,14.05
2023-05-19T20:01:27.530Z,13.99
2023-05-19T20:03:55.432Z,14.00
2023-05-19T20:06:22.436Z,13.95
2023-05-19T20:08:49.678Z,13.93
2023-05-19T20:11:17.374Z,13.97
2023-05-19T20:13:43.995Z,13.97
2023-05-19T20:16:10.728Z,14.00
2023-05-19T20:18:37.465Z,13.88
2023-05-19T20:21:04.124Z,13.76
2023-05-19T20:23:30.821Z,13.70
2023-05-19T20:26:10.729Z,13.71
2023-05-19T20:28:39.586Z,13.65
2023-05-19T20:31:06.376Z,13.62
2023-05-19T20:33:33.017Z,13.62
2023-05-19T20:35:59.664Z,13.57
2023-05-19T20:38:26.387Z,13.58
2023-05-19T20:40:54.404Z,13.63
2023-05-19T20:43:21.234Z,13.65
2023-05-19T20:45:48.103Z,13.63
2023-05-19T20:48:15.936Z,13.63
2023-05-19T20:50:42.837Z,13.65
2023-05-19T20:53:09.889Z,13.63
2023-05-19T20:55:37.835Z,13.64
2023-05-19T20:58:04.549Z,13.62
2023-05-19T21:00:31.279Z,13.68
2023-05-19T21:02:58.095Z,13.58
2023-05-19T21:05:24.995Z,13.53
2023-05-19T21:07:51.642Z,13.51
2023-05-19T21:10:18.415Z,13.55
2023-05-19T21:12:45.066Z,13.61
2023-05-19T21:15:11.859Z,13.61
2023-05-19T21:17:38.547Z,13.56
2023-05-19T21:20:05.887Z,13.60
2023-05-19T21:22:32.609Z,13.65
2023-05-19T21:24:59.233Z,13.67
2023-05-19T21:27:25.888Z,13.70
2023-05-19T21:29:54.168Z,13.74
2023-05-19T21:32:21.513Z,13.76
2023-05-19T21:34:48.181Z,13.74
2023-05-19T21:37:17.062Z,13.69
2023-05-19T21:39:44.106Z,13.73
2023-05-19T21:42:10.708Z,13.70
2023-05-19T21:44:37.380Z,13.72
2023-05-19T21:47:04.055Z,13.78
2023-05-19T21:49:31.181Z,13.80
2023-05-19T21:51:58.123Z,13.79
2023-05-19T21:54:24.768Z,13.79
2023-05-19T21:56:51.416Z,13.81
2023-05-19T21:59:18.149Z,13.76
2023-05-19T22:01:44.925Z,13.80
2023-05-19T22:04:11.875Z,13.82
2023-05-19T22:06:38.573Z,13.77
2023-05-19T22:09:05.247Z,13.76
2023-05-19T22:11:31.847Z,13.76
2023-05-19T22:13:58.463Z,13.75
2023-05-19T22:16:25.220Z,13.72
2023-05-19T22:18:51.927Z,13.65
2023-05-19T22:21:18.648Z,13.64
2023-05-19T22:23:45.527Z,13.68
2023-05-19T22:26:12.177Z,13.67
2023-05-19T22:28:38.794Z,13.64
2023-05-19T22:31:05.467Z,13.70
2023-05-19T22:33:32.103Z,13.70
2023-05-19T22:35:58.757Z,13.72
2023-05-19T22:38:25.562Z,13.74
2023-05-19T22:40:52.191Z,13.76
2023-05-19T22:43:18.817Z,13.76
2023-05-19T22:45:45.670Z,13.81
2023-05-19T22:48:12.377Z,13.80
2023-05-19T22:50:39.066Z,13.80
2023-05-19T22:53:05.673Z,13.84
2023-05-19T22:55:32.500Z,13.82
2023-05-19T22:57:59.438Z,13.86
2023-05-19T23:00:26.086Z,13.77
2023-05-19T23:02:52.869Z,13.70
2023-05-19T23:05:19.610Z,13.64
2023-05-19T23:07:46.458Z,13.70
2023-05-19T23:10:13.268Z,13.80
2023-05-19T23:12:40.083Z,13.73
2023-05-19T23:15:08.081Z,13.67
2023-05-19T23:17:34.705Z,13.63
2023-05-19T23:20:01.630Z,13.64
2023-05-19T23:22:28.357Z,13.60
2023-05-19T23:24:54.961Z,13.49
2023-05-19T23:27:21.566Z,13.52
2023-05-19T23:29:49.361Z,13.53
2023-05-19T23:32:16.105Z,13.56
2023-05-19T23:34:42.781Z,13.51
2023-05-19T23:37:09.480Z,13.47
2023-05-19T23:39:38.173Z,13.50
2023-05-19T23:42:05.731Z,13.54
2023-05-19T23:44:32.450Z,13.54
2023-05-19T23:46:59.293Z,13.44
2023-05-19T23:49:26.037Z,13.52
2023-05-19T23:51:52.756Z,13.55
2023-05-19T23:54:19.348Z,13.55
2023-05-19T23:56:46.166Z,13.47
2023-05-19T23:59:12.830Z,13.56
